PWSweather.com
Personal Weather Stations
Station Observations
KRMIDAS
Braemar, Lake Zurich, IL 60047

BraemarLake Zurich, IL 60047

Lat: 42.178, Lon: -88.102

Elevation: 837

Station Type: Davis Vantage Pro 2

http://tomkeramidas.com/cumulus/index.htm

Latest ConditionsUpdated 4:15:01 PM CST Tuesday, Jan 24, 2017
Currently Today's Max Today's Min Today's Average
Temperature 35.0°F1.7°C 36.8°F2.7°C 33.3°F0.7°C 35.0°F1.7°C
Dew Point 32.6°F0.3°C 34.7°F1.5°C 31.5°F-0.3°C 33.0°F0.6°C
Winds Calm Calm 4.0 mph WNW6.4 kmh WNW - 1.1 mph 1.8 kmh
Wind Gusts -- 14.0 mph22.5 kmh - -
Humidity 91% 94% 90% 92%
Pressure 29.85 in1010.8 mb 29.92 in1013.2 mb 29.84 in1010.5 mb -
Hour Temp Dew Point Humidity Winds Wind Gusts Pressure Precip Precip Rate Daily Precip Total
04:15 PM 35.0°F1.7°C 32.6°F0.3°C 91% Calm Calm -- 29.85 in1010.8 mb 0.00 in0.0 mm 0.00 in0.0 mm 0.00 in0.0 mm
04:00 PM 35.1°F1.7°C 32.5°F0.3°C 90% Calm Calm -- 29.86 in1011.2 mb 0.00 in0.0 mm 0.00 in0.0 mm 0.00 in0.0 mm
03:45 PM 35.4°F1.9°C 32.8°F0.4°C 90% Calm Calm -- 29.86 in1011.2 mb 0.00 in0.0 mm 0.00 in0.0 mm 0.00 in0.0 mm
03:30 PM 35.4°F1.9°C 32.8°F0.4°C 90% Calm Calm -- 29.86 in1011.2 mb 0.00 in0.0 mm 0.00 in0.0 mm 0.00 in0.0 mm
03:15 PM 35.4°F1.9°C 32.8°F0.4°C 90% Calm Calm -- 29.87 in1011.5 mb 0.00 in0.0 mm 0.00 in0.0 mm 0.00 in0.0 mm
03:00 PM 35.5°F1.9°C 32.9°F0.5°C 90% Calm Calm -- 29.87 in1011.5 mb 0.00 in0.0 mm 0.00 in0.0 mm 0.00 in0.0 mm
02:45 PM 35.4°F1.9°C 32.8°F0.4°C 90% Calm Calm -- 29.87 in1011.5 mb 0.00 in0.0 mm 0.00 in0.0 mm 0.00 in0.0 mm
02:30 PM 35.4°F1.9°C 32.8°F0.4°C 90% Calm Calm -- 29.86 in1011.2 mb 0.00 in0.0 mm 0.00 in0.0 mm 0.00 in0.0 mm
02:15 PM 35.2°F1.8°C 32.8°F0.4°C 91% Calm Calm -- 29.85 in1010.8 mb 0.00 in0.0 mm 0.00 in0.0 mm 0.00 in0.0 mm
02:00 PM 35.1°F1.7°C 32.7°F0.4°C 91% Calm Calm -- 29.85 in1010.8 mb 0.00 in0.0 mm 0.00 in0.0 mm 0.00 in0.0 mm
01:45 PM 35.0°F1.7°C 32.6°F0.3°C 91% Calm Calm -- 29.86 in1011.2 mb 0.00 in0.0 mm 0.00 in0.0 mm 0.00 in0.0 mm
01:30 PM 35.0°F1.7°C 32.6°F0.3°C 91% Calm Calm -- 29.87 in1011.5 mb 0.00 in0.0 mm 0.00 in0.0 mm 0.00 in0.0 mm
01:15 PM 35.1°F1.7°C 32.7°F0.4°C 91% Calm Calm -- 29.86 in1011.2 mb 0.00 in0.0 mm 0.00 in0.0 mm 0.00 in0.0 mm
01:00 PM 35.2°F1.8°C 32.8°F0.4°C 91% Calm Calm -- 29.87 in1011.5 mb 0.00 in0.0 mm 0.00 in0.0 mm 0.00 in0.0 mm
12:45 PM 35.2°F1.8°C 33.1°F0.6°C 92% Calm Calm -- 29.88 in1011.9 mb 0.00 in0.0 mm 0.00 in0.0 mm 0.00 in0.0 mm
12:30 PM 35.0°F1.7°C 32.9°F0.5°C 92% Calm Calm -- 29.88 in1011.9 mb 0.00 in0.0 mm 0.00 in0.0 mm 0.00 in0.0 mm
12:15 PM 35.0°F1.7°C 32.9°F0.5°C 92% Calm Calm -- 29.89 in1012.2 mb 0.00 in0.0 mm 0.00 in0.0 mm 0.00 in0.0 mm
12:00 PM 34.9°F1.6°C 32.8°F0.4°C 92% 3.0 mph WSW4.8 kmh WSW 7.0 mph11.3 kmh 29.90 in1012.5 mb 0.00 in0.0 mm 0.00 in0.0 mm 0.00 in0.0 mm
11:45 AM 34.6°F1.4°C 32.5°F0.3°C 92% Calm Calm 5.0 mph8.0 kmh 29.91 in1012.9 mb 0.00 in0.0 mm 0.00 in0.0 mm 0.00 in0.0 mm
11:30 AM 34.5°F1.4°C 32.4°F0.2°C 92% Calm Calm -- 29.91 in1012.9 mb 0.00 in0.0 mm 0.00 in0.0 mm 0.00 in0.0 mm
11:15 AM 34.4°F1.3°C 32.3°F0.2°C 92% 1.0 mph NW1.6 kmh NW 6.0 mph9.7 kmh 29.91 in1012.9 mb 0.00 in0.0 mm 0.00 in0.0 mm 0.00 in0.0 mm
11:00 AM 34.4°F1.3°C 32.6°F0.3°C 93% 1.0 mph NW1.6 kmh NW 6.0 mph9.7 kmh 29.91 in1012.9 mb 0.00 in0.0 mm 0.00 in0.0 mm 0.00 in0.0 mm
10:45 AM 34.2°F1.2°C 32.4°F0.2°C 93% 1.0 mph NNW1.6 kmh NNW 5.0 mph8.0 kmh 29.92 in1013.2 mb 0.00 in0.0 mm 0.00 in0.0 mm 0.00 in0.0 mm
10:30 AM 34.0°F1.1°C 32.2°F0.1°C 93% 1.0 mph NW1.6 kmh NW 6.0 mph9.7 kmh 29.92 in1013.2 mb 0.00 in0.0 mm 0.00 in0.0 mm 0.00 in0.0 mm
10:15 AM 34.1°F1.2°C 32.3°F0.2°C 93% Calm Calm -- 29.91 in1012.9 mb 0.00 in0.0 mm 0.00 in0.0 mm 0.00 in0.0 mm
10:00 AM 33.8°F1.0°C 32.0°F0.0°C 93% Calm Calm -- 29.91 in1012.9 mb 0.00 in0.0 mm 0.00 in0.0 mm 0.00 in0.0 mm
09:45 AM 33.7°F0.9°C 31.9°F-0.1°C 93% Calm Calm -- 29.91 in1012.9 mb 0.00 in0.0 mm 0.00 in0.0 mm 0.00 in0.0 mm
09:30 AM 33.5°F0.8°C 32.0°F0.0°C 94% 2.0 mph WNW3.2 kmh WNW 7.0 mph11.3 kmh 29.92 in1013.2 mb 0.00 in0.0 mm 0.00 in0.0 mm 0.00 in0.0 mm
09:15 AM 33.4°F0.8°C 31.9°F-0.1°C 94% Calm Calm 6.0 mph9.7 kmh 29.91 in1012.9 mb 0.00 in0.0 mm 0.00 in0.0 mm 0.00 in0.0 mm
09:00 AM 33.3°F0.7°C 31.5°F-0.3°C 93% 1.0 mph WNW1.6 kmh WNW 9.0 mph14.5 kmh 29.92 in1013.2 mb 0.00 in0.0 mm 0.00 in0.0 mm 0.00 in0.0 mm
08:45 AM 33.3°F0.7°C 31.5°F-0.3°C 93% 4.0 mph WNW6.4 kmh WNW 11.0 mph17.7 kmh 29.92 in1013.2 mb 0.00 in0.0 mm 0.00 in0.0 mm 0.00 in0.0 mm
08:30 AM 33.3°F0.7°C 31.5°F-0.3°C 93% 3.0 mph W4.8 kmh W 10.0 mph16.1 kmh 29.92 in1013.2 mb 0.00 in0.0 mm 0.00 in0.0 mm 0.00 in0.0 mm
08:15 AM 33.5°F0.8°C 31.7°F-0.2°C 93% 3.0 mph WSW4.8 kmh WSW 14.0 mph22.5 kmh 29.92 in1013.2 mb 0.00 in0.0 mm 0.00 in0.0 mm 0.00 in0.0 mm
08:00 AM 33.7°F0.9°C 31.9°F-0.1°C 93% 2.0 mph WSW3.2 kmh WSW 12.0 mph19.3 kmh 29.91 in1012.9 mb 0.00 in0.0 mm 0.00 in0.0 mm 0.00 in0.0 mm
07:45 AM 33.8°F1.0°C 32.0°F0.0°C 93% 4.0 mph WSW6.4 kmh WSW 11.0 mph17.7 kmh 29.91 in1012.9 mb 0.00 in0.0 mm 0.00 in0.0 mm 0.00 in0.0 mm
07:30 AM 34.0°F1.1°C 32.2°F0.1°C 93% 3.0 mph W4.8 kmh W 13.0 mph20.9 kmh 29.90 in1012.5 mb 0.00 in0.0 mm 0.00 in0.0 mm 0.00 in0.0 mm
07:15 AM 34.1°F1.2°C 32.3°F0.2°C 93% 3.0 mph WSW4.8 kmh WSW 9.0 mph14.5 kmh 29.90 in1012.5 mb 0.00 in0.0 mm 0.00 in0.0 mm 0.00 in0.0 mm
07:00 AM 34.2°F1.2°C 32.4°F0.2°C 93% Calm Calm 3.0 mph4.8 kmh 29.90 in1012.5 mb 0.00 in0.0 mm 0.00 in0.0 mm 0.00 in0.0 mm
06:45 AM 34.3°F1.3°C 32.5°F0.3°C 93% 3.0 mph W4.8 kmh W 10.0 mph16.1 kmh 29.89 in1012.2 mb 0.00 in0.0 mm 0.00 in0.0 mm 0.00 in0.0 mm
06:30 AM 34.5°F1.4°C 32.7°F0.4°C 93% Calm Calm -- 29.89 in1012.2 mb 0.00 in0.0 mm 0.00 in0.0 mm 0.00 in0.0 mm
06:15 AM 34.6°F1.4°C 32.5°F0.3°C 92% 3.0 mph W4.8 kmh W 10.0 mph16.1 kmh 29.89 in1012.2 mb 0.00 in0.0 mm 0.00 in0.0 mm 0.00 in0.0 mm
06:00 AM 34.8°F1.6°C 32.7°F0.4°C 92% 2.0 mph W3.2 kmh W 8.0 mph12.9 kmh 29.88 in1011.9 mb 0.00 in0.0 mm 0.00 in0.0 mm 0.00 in0.0 mm
05:45 AM 34.9°F1.6°C 32.8°F0.4°C 92% 2.0 mph W3.2 kmh W 9.0 mph14.5 kmh 29.88 in1011.9 mb 0.00 in0.0 mm 0.00 in0.0 mm 0.00 in0.0 mm
05:30 AM 34.9°F1.6°C 32.8°F0.4°C 92% 3.0 mph WNW4.8 kmh WNW 8.0 mph12.9 kmh 29.87 in1011.5 mb 0.00 in0.0 mm 0.00 in0.0 mm 0.00 in0.0 mm
05:15 AM 35.0°F1.7°C 32.9°F0.5°C 92% 2.0 mph WNW3.2 kmh WNW 10.0 mph16.1 kmh 29.86 in1011.2 mb 0.00 in0.0 mm 0.00 in0.0 mm 0.00 in0.0 mm
05:00 AM 35.1°F1.7°C 33.0°F0.6°C 92% 1.0 mph WNW1.6 kmh WNW 7.0 mph11.3 kmh 29.86 in1011.2 mb 0.00 in0.0 mm 0.00 in0.0 mm 0.00 in0.0 mm
04:45 AM 35.2°F1.8°C 33.1°F0.6°C 92% 4.0 mph WNW6.4 kmh WNW 10.0 mph16.1 kmh 29.86 in1011.2 mb 0.00 in0.0 mm 0.00 in0.0 mm 0.00 in0.0 mm
04:30 AM 35.3°F1.8°C 33.2°F0.7°C 92% 2.0 mph WNW3.2 kmh WNW 10.0 mph16.1 kmh 29.86 in1011.2 mb 0.00 in0.0 mm 0.00 in0.0 mm 0.00 in0.0 mm
04:15 AM 35.4°F1.9°C 33.6°F0.9°C 93% 3.0 mph WNW4.8 kmh WNW 10.0 mph16.1 kmh 29.86 in1011.2 mb 0.00 in0.0 mm 0.00 in0.0 mm 0.00 in0.0 mm
04:00 AM 35.5°F1.9°C 33.7°F0.9°C 93% 3.0 mph W4.8 kmh W 9.0 mph14.5 kmh 29.86 in1011.2 mb 0.00 in0.0 mm 0.00 in0.0 mm 0.00 in0.0 mm
03:45 AM 35.6°F2.0°C 33.8°F1.0°C 93% 4.0 mph WNW6.4 kmh WNW 10.0 mph16.1 kmh 29.86 in1011.2 mb 0.00 in0.0 mm 0.00 in0.0 mm 0.00 in0.0 mm
03:30 AM 35.7°F2.1°C 33.9°F1.1°C 93% 1.0 mph WNW1.6 kmh WNW 7.0 mph11.3 kmh 29.85 in1010.8 mb 0.00 in0.0 mm 0.00 in0.0 mm 0.00 in0.0 mm
03:15 AM 35.9°F2.2°C 34.3°F1.3°C 94% 2.0 mph WNW3.2 kmh WNW 10.0 mph16.1 kmh 29.86 in1011.2 mb 0.00 in0.0 mm 0.00 in0.0 mm 0.00 in0.0 mm
03:00 AM 36.0°F2.2°C 34.4°F1.3°C 94% Calm Calm 11.0 mph17.7 kmh 29.86 in1011.2 mb 0.00 in0.0 mm 0.00 in0.0 mm 0.00 in0.0 mm
02:45 AM 36.0°F2.2°C 34.4°F1.3°C 94% 1.0 mph WNW1.6 kmh WNW 7.0 mph11.3 kmh 29.86 in1011.2 mb 0.00 in0.0 mm 0.00 in0.0 mm 0.00 in0.0 mm
02:30 AM 36.1°F2.3°C 34.5°F1.4°C 94% 1.0 mph WNW1.6 kmh WNW 5.0 mph8.0 kmh 29.85 in1010.8 mb 0.00 in0.0 mm 0.00 in0.0 mm 0.00 in0.0 mm
02:15 AM 36.2°F2.3°C 34.6°F1.4°C 94% Calm Calm 3.0 mph4.8 kmh 29.84 in1010.5 mb 0.00 in0.0 mm 0.00 in0.0 mm 0.00 in0.0 mm
02:00 AM 36.3°F2.4°C 34.5°F1.4°C 93% 1.0 mph W1.6 kmh W 5.0 mph8.0 kmh 29.84 in1010.5 mb 0.00 in0.0 mm 0.00 in0.0 mm 0.00 in0.0 mm
01:45 AM 36.4°F2.4°C 34.6°F1.4°C 93% Calm Calm 4.0 mph6.4 kmh 29.84 in1010.5 mb 0.00 in0.0 mm 0.00 in0.0 mm 0.00 in0.0 mm
01:30 AM 36.4°F2.4°C 34.6°F1.4°C 93% Calm Calm -- 29.84 in1010.5 mb 0.00 in0.0 mm 0.00 in0.0 mm 0.00 in0.0 mm
01:15 AM 36.5°F2.5°C 34.4°F1.3°C 92% 1.0 mph W1.6 kmh W 5.0 mph8.0 kmh 29.84 in1010.5 mb 0.00 in0.0 mm 0.00 in0.0 mm 0.00 in0.0 mm
01:00 AM 36.5°F2.5°C 34.4°F1.3°C 92% 1.0 mph WNW1.6 kmh WNW 6.0 mph9.7 kmh 29.84 in1010.5 mb 0.00 in0.0 mm 0.00 in0.0 mm 0.00 in0.0 mm
12:45 AM 36.6°F2.6°C 34.5°F1.4°C 92% Calm Calm 3.0 mph4.8 kmh 29.84 in1010.5 mb 0.00 in0.0 mm 0.00 in0.0 mm 0.00 in0.0 mm
12:30 AM 36.7°F2.6°C 34.6°F1.4°C 92% 1.0 mph WNW1.6 kmh WNW 9.0 mph14.5 kmh 29.84 in1010.5 mb 0.00 in0.0 mm 0.00 in0.0 mm 0.00 in0.0 mm
12:15 AM 36.8°F2.7°C 34.7°F1.5°C 92% Calm Calm -- 29.84 in1010.5 mb 0.00 in0.0 mm 0.00 in0.0 mm 0.00 in0.0 mm
12:00 AM 36.8°F2.7°C 34.7°F1.5°C 92% Calm Calm -- 29.84 in1010.5 mb 0.00 in0.0 mm 0.00 in0.0 mm 0.00 in0.0 mm